Santurtzi, Spain
Current Conditions -  °F | °C
As of 2:30 PM on Thursday 30 Oct 2014 (Local Time) from LEBB Reporting Station
Clear Clear  
Wind Chill: 88°   Ceiling: Unl
Heat Index: 88°   Visibility: 6mi
Dew Point: 50°   Wind: 3mph
Humidity: 27%   Direction: NA
Pressure: 30.06"   Gusts: NA
Location:  43.33°N, 3.03°W
Report Text: LEBB 301330Z VRB03KT CAVOK 31/10 Q1018 NOSIG
Loading
Personal Weather Stations






























Interactive Weather Map New forecast layout! Learn more

10-Day Weather Forecast

Advertisements
Track Severe Weather on mobile